createdAt,value
2019-03-16T00:01:57.024Z,10.70
2019-03-16T00:04:16.310Z,10.80
2019-03-16T00:06:42.376Z,10.70
2019-03-16T00:09:08.486Z,10.80
2019-03-16T00:11:34.570Z,10.80
2019-03-16T00:14:00.646Z,10.80
2019-03-16T00:16:26.741Z,10.80
2019-03-16T00:18:52.816Z,10.80
2019-03-16T00:21:18.879Z,10.80
2019-03-16T00:23:44.960Z,10.90
2019-03-16T00:26:11.033Z,10.90
2019-03-16T00:28:37.111Z,10.90
2019-03-16T00:31:03.208Z,10.90
2019-03-16T00:33:29.255Z,10.90
2019-03-16T00:35:55.348Z,10.90
2019-03-16T00:38:23.452Z,10.90
2019-03-16T00:40:49.420Z,11.00
2019-03-16T00:43:15.492Z,11.00
2019-03-16T00:45:41.569Z,10.90
2019-03-16T00:48:07.650Z,10.90
2019-03-16T00:50:33.721Z,10.90
2019-03-16T00:52:59.815Z,10.90
2019-03-16T00:55:25.894Z,10.80
2019-03-16T00:57:51.996Z,10.80
2019-03-16T01:00:18.054Z,10.70
2019-03-16T01:02:44.177Z,10.70
2019-03-16T01:05:10.543Z,10.60
2019-03-16T01:07:36.634Z,10.50
2019-03-16T01:10:04.909Z,10.50
2019-03-16T01:12:31.000Z,10.40
2019-03-16T01:14:57.100Z,10.40
2019-03-16T01:17:23.161Z,10.40
2019-03-16T01:19:49.236Z,10.30
2019-03-16T01:22:15.346Z,10.40
2019-03-16T01:24:41.451Z,10.30
2019-03-16T01:27:07.532Z,10.30
2019-03-16T01:29:33.613Z,10.30
2019-03-16T01:31:59.699Z,10.30
2019-03-16T01:34:25.788Z,10.30
2019-03-16T01:36:51.887Z,10.40
2019-03-16T01:39:17.960Z,10.40
2019-03-16T01:41:44.039Z,10.50
2019-03-16T01:44:10.110Z,10.50
2019-03-16T01:46:36.226Z,10.60
2019-03-16T01:49:02.414Z,10.60
2019-03-16T01:51:28.504Z,10.60
2019-03-16T01:53:54.609Z,10.60
2019-03-16T01:56:20.687Z,10.60
2019-03-16T01:58:46.775Z,10.60
2019-03-16T02:01:12.877Z,10.60
2019-03-16T02:03:38.940Z,10.60
2019-03-16T02:06:05.213Z,10.60
2019-03-16T02:08:31.325Z,10.60
2019-03-16T02:10:57.417Z,10.60
2019-03-16T02:13:23.568Z,10.60
2019-03-16T02:16:10.017Z,10.60
2019-03-16T02:18:25.468Z,10.60
2019-03-16T02:20:51.770Z,10.60
2019-03-16T02:23:17.830Z,10.50
2019-03-16T02:25:43.896Z,10.60
2019-03-16T02:28:09.973Z,10.60
2019-03-16T02:30:36.054Z,10.60
2019-03-16T02:33:12.426Z,10.60
2019-03-16T02:35:30.167Z,10.60
2019-03-16T02:37:56.245Z,10.60
2019-03-16T02:40:22.319Z,10.50
2019-03-16T02:42:48.400Z,10.50
2019-03-16T02:45:14.497Z,10.50
2019-03-16T02:47:40.678Z,10.50
2019-03-16T02:50:08.764Z,10.50
2019-03-16T02:52:34.846Z,10.60
2019-03-16T02:55:00.923Z,10.60
2019-03-16T02:57:27.003Z,10.60
2019-03-16T02:59:53.104Z,10.60
2019-03-16T03:02:19.246Z,10.60
2019-03-16T03:04:46.264Z,10.60
2019-03-16T03:07:12.823Z,10.60
2019-03-16T03:09:38.900Z,10.60
2019-03-16T03:12:05.018Z,10.60
2019-03-16T03:14:31.100Z,10.50
2019-03-16T03:16:57.207Z,10.50
2019-03-16T03:19:23.426Z,10.50
2019-03-16T03:21:49.505Z,10.50
2019-03-16T03:24:15.600Z,10.40
2019-03-16T03:26:41.685Z,10.40
2019-03-16T03:29:07.858Z,10.40
2019-03-16T03:31:33.946Z,10.40
2019-03-16T03:34:02.523Z,10.30
2019-03-16T03:36:28.045Z,10.30
2019-03-16T03:38:54.139Z,10.30
2019-03-16T03:41:20.223Z,10.30
2019-03-16T03:43:46.508Z,10.20
2019-03-16T03:46:12.577Z,10.20
2019-03-16T03:48:38.661Z,10.20
2019-03-16T03:51:04.738Z,10.20
2019-03-16T03:53:30.803Z,10.20
2019-03-16T03:55:56.915Z,10.20
2019-03-16T03:58:22.995Z,10.10
2019-03-16T04:00:49.077Z,10.20
2019-03-16T04:03:15.353Z,10.10
2019-03-16T04:05:41.436Z,10.10
2019-03-16T04:08:07.552Z,10.10
2019-03-16T04:10:33.640Z,10.20
2019-03-16T04:12:59.744Z,10.10
2019-03-16T04:15:25.828Z,10.10
2019-03-16T04:17:51.992Z,10.10
2019-03-16T04:20:18.065Z,10.10
2019-03-16T04:22:44.139Z,10.10
2019-03-16T04:25:10.445Z,10.10
2019-03-16T04:27:36.528Z,10.10
2019-03-16T04:30:04.586Z,10.00
2019-03-16T04:32:30.704Z,10.00
2019-03-16T04:34:56.774Z,10.00
2019-03-16T04:37:22.861Z,9.90
2019-03-16T04:39:48.945Z,9.90
2019-03-16T04:42:15.024Z,9.90
2019-03-16T04:44:41.092Z,9.90
2019-03-16T04:47:07.190Z,10.00
2019-03-16T04:49:33.255Z,10.00
2019-03-16T04:51:59.345Z,10.00
2019-03-16T04:54:25.456Z,9.90
2019-03-16T04:56:51.536Z,10.00
2019-03-16T04:59:17.709Z,10.00
2019-03-16T05:01:43.797Z,9.90
2019-03-16T05:04:09.884Z,10.00
2019-03-16T05:06:35.989Z,10.00
2019-03-16T05:09:03.388Z,10.00
2019-03-16T05:11:29.501Z,10.00
2019-03-16T05:13:55.579Z,10.00
2019-03-16T05:16:21.671Z,10.00
2019-03-16T05:18:47.769Z,10.00
2019-03-16T05:21:13.839Z,10.00
2019-03-16T05:23:39.935Z,10.00
2019-03-16T05:26:06.021Z,9.90
2019-03-16T05:28:32.092Z,9.90
2019-03-16T05:30:58.233Z,9.90
2019-03-16T05:33:24.338Z,9.90
2019-03-16T05:35:50.484Z,9.90
2019-03-16T05:38:16.594Z,9.90
2019-03-16T05:40:42.664Z,9.80
2019-03-16T05:43:08.724Z,9.70
2019-03-16T05:45:34.803Z,9.20
2019-03-16T05:48:00.899Z,8.60
2019-03-16T05:50:26.989Z,8.30
2019-03-16T05:52:53.156Z,8.10
2019-03-16T05:55:19.336Z,7.90
2019-03-16T05:57:45.401Z,7.80
2019-03-16T06:00:13.883Z,7.70
2019-03-16T06:02:39.964Z,7.90
2019-03-16T06:05:11.063Z,7.90
2019-03-16T06:07:34.044Z,7.70
2019-03-16T06:10:00.367Z,7.80
2019-03-16T06:12:26.537Z,7.80
2019-03-16T06:14:52.618Z,7.80
2019-03-16T06:17:18.713Z,8.00
2019-03-16T06:19:44.792Z,8.10
2019-03-16T06:22:10.876Z,8.10
2019-03-16T06:24:36.952Z,8.20
2019-03-16T06:27:03.031Z,8.20
2019-03-16T06:29:29.109Z,8.30
2019-03-16T06:31:55.228Z,8.40
2019-03-16T06:34:21.314Z,8.30
2019-03-16T06:36:47.391Z,8.10
2019-03-16T06:39:13.467Z,8.10
2019-03-16T06:41:39.535Z,8.10
2019-03-16T06:44:05.626Z,8.20
2019-03-16T06:46:31.776Z,8.10
2019-03-16T06:48:57.861Z,7.90
2019-03-16T06:51:23.944Z,8.00
2019-03-16T06:53:50.021Z,8.00
2019-03-16T06:56:16.101Z,7.80
2019-03-16T06:58:42.161Z,7.70
2019-03-16T07:01:08.359Z,7.70
2019-03-16T07:03:35.233Z,7.70
2019-03-16T07:06:01.344Z,7.90
2019-03-16T07:08:27.440Z,7.90
2019-03-16T07:10:53.538Z,7.80
2019-03-16T07:13:19.629Z,7.70
2019-03-16T07:15:45.724Z,7.60
2019-03-16T07:18:11.839Z,7.50
2019-03-16T07:20:37.987Z,7.50
2019-03-16T07:23:04.055Z,7.40
2019-03-16T07:25:30.172Z,7.40
2019-03-16T07:27:56.687Z,7.60
2019-03-16T07:30:22.783Z,7.60
2019-03-16T07:32:48.852Z,7.70
2019-03-16T07:35:14.930Z,7.60
2019-03-16T07:37:41.044Z,7.70
2019-03-16T07:40:11.438Z,7.60
2019-03-16T07:42:37.512Z,7.60
2019-03-16T07:45:08.504Z,7.60
2019-03-16T07:47:34.677Z,7.50
2019-03-16T07:50:00.757Z,7.50
2019-03-16T07:52:26.845Z,7.50
2019-03-16T07:54:52.964Z,7.60
2019-03-16T07:57:19.160Z,7.50
2019-03-16T07:59:45.257Z,7.70
2019-03-16T08:02:11.336Z,7.80
2019-03-16T08:04:37.421Z,8.00
2019-03-16T08:07:03.506Z,8.10
2019-03-16T08:09:29.573Z,8.10
2019-03-16T08:11:55.669Z,8.20
2019-03-16T08:14:21.736Z,8.30
2019-03-16T08:16:47.846Z,8.40
2019-03-16T08:19:13.912Z,8.40
2019-03-16T08:21:40.007Z,8.40
2019-03-16T08:24:06.119Z,8.40
2019-03-16T08:26:32.288Z,8.50
2019-03-16T08:28:59.286Z,8.50
2019-03-16T08:31:25.693Z,8.50
2019-03-16T08:33:51.771Z,8.50
2019-03-16T08:36:17.836Z,8.60
2019-03-16T08:38:43.929Z,8.50
2019-03-16T08:41:10.020Z,8.50
2019-03-16T08:43:36.113Z,8.60
2019-03-16T08:46:02.214Z,8.60
2019-03-16T08:48:28.298Z,8.70
2019-03-16T08:50:54.386Z,8.70
2019-03-16T08:53:22.756Z,8.80
2019-03-16T08:55:48.450Z,8.80
2019-03-16T08:58:14.557Z,9.00
2019-03-16T09:00:40.635Z,9.00
2019-03-16T09:03:06.711Z,9.20
2019-03-16T09:05:32.785Z,9.30
2019-03-16T09:07:58.859Z,9.50
2019-03-16T09:10:24.954Z,9.50
2019-03-16T09:12:55.310Z,9.60
2019-03-16T09:15:19.108Z,9.60
2019-03-16T09:17:45.299Z,9.80
2019-03-16T09:20:11.472Z,10.00
2019-03-16T09:22:37.591Z,10.10
2019-03-16T09:25:06.657Z,10.30
2019-03-16T09:27:32.736Z,10.40
2019-03-16T09:29:58.812Z,10.50
2019-03-16T09:32:24.885Z,10.50
2019-03-16T09:34:50.962Z,10.60
2019-03-16T09:37:17.048Z,10.70
2019-03-16T09:39:43.156Z,10.80
2019-03-16T09:42:09.260Z,10.80
2019-03-16T09:44:35.345Z,10.90
2019-03-16T09:47:01.434Z,10.90
2019-03-16T09:49:27.519Z,10.90
2019-03-16T09:51:53.585Z,11.00
2019-03-16T09:54:19.702Z,11.10
2019-03-16T09:56:45.771Z,11.10
2019-03-16T09:59:11.846Z,11.10
2019-03-16T10:01:37.928Z,11.20
2019-03-16T10:04:04.020Z,11.30
2019-03-16T10:06:30.173Z,11.30
2019-03-16T10:08:56.271Z,11.30
2019-03-16T10:11:22.351Z,11.40
2019-03-16T10:13:48.431Z,11.40
2019-03-16T10:16:14.507Z,11.40
2019-03-16T10:18:40.596Z,11.50
2019-03-16T10:21:06.691Z,11.50
2019-03-16T10:23:32.777Z,11.50
2019-03-16T10:25:58.886Z,11.50
2019-03-16T10:28:25.056Z,11.50
2019-03-16T10:30:51.146Z,11.50
2019-03-16T10:33:17.246Z,11.50
2019-03-16T10:35:43.320Z,11.50
2019-03-16T10:38:09.412Z,11.60
2019-03-16T10:40:35.567Z,11.70
2019-03-16T10:43:01.777Z,11.70
2019-03-16T10:45:28.041Z,11.80
2019-03-16T10:47:54.130Z,11.70
2019-03-16T10:50:20.203Z,11.70
2019-03-16T10:52:46.384Z,11.70
2019-03-16T10:55:12.555Z,11.80
2019-03-16T10:57:38.669Z,11.80
2019-03-16T11:00:13.353Z,11.80
2019-03-16T11:02:39.432Z,11.80
2019-03-16T11:05:05.729Z,11.80
2019-03-16T11:07:31.923Z,11.90
2019-03-16T11:09:58.085Z,11.90
2019-03-16T11:12:24.153Z,11.90
2019-03-16T11:14:50.216Z,11.90
2019-03-16T11:17:16.326Z,11.90
2019-03-16T11:19:42.384Z,11.90
2019-03-16T11:22:08.464Z,12.00
2019-03-16T11:24:34.532Z,11.90
2019-03-16T11:27:00.602Z,11.90
2019-03-16T11:29:26.780Z,12.00
2019-03-16T11:31:52.905Z,12.00
2019-03-16T11:34:18.998Z,12.00
2019-03-16T11:36:45.060Z,12.00
2019-03-16T11:39:11.136Z,12.00
2019-03-16T11:41:37.227Z,12.00
2019-03-16T11:44:03.337Z,12.00
2019-03-16T11:46:29.511Z,12.00
2019-03-16T11:48:55.599Z,12.00
2019-03-16T11:51:21.665Z,12.00
2019-03-16T11:53:47.736Z,12.10
2019-03-16T11:56:18.316Z,12.30
2019-03-16T11:58:41.792Z,12.30
2019-03-16T12:01:07.860Z,12.40
2019-03-16T12:03:34.019Z,12.40
2019-03-16T12:06:00.096Z,12.50
2019-03-16T12:08:26.170Z,12.50
2019-03-16T12:10:52.235Z,12.50
2019-03-16T12:13:19.313Z,12.60
2019-03-16T12:15:45.905Z,12.60
2019-03-16T12:18:12.028Z,12.70
2019-03-16T12:20:38.137Z,12.70
2019-03-16T12:23:04.216Z,12.70
2019-03-16T12:25:30.281Z,12.70
2019-03-16T12:27:56.578Z,12.70
2019-03-16T12:30:22.672Z,12.70
2019-03-16T12:32:48.763Z,12.70
2019-03-16T12:35:14.841Z,12.70
2019-03-16T12:37:40.920Z,12.70
2019-03-16T12:40:13.894Z,12.70
2019-03-16T12:42:40.055Z,12.70
2019-03-16T12:45:14.524Z,12.70
2019-03-16T12:47:40.605Z,12.70
2019-03-16T12:50:07.602Z,12.60
2019-03-16T12:52:33.763Z,12.70
2019-03-16T12:54:59.921Z,12.70
2019-03-16T12:57:26.032Z,12.70
2019-03-16T12:59:52.226Z,12.60
2019-03-16T13:02:18.284Z,12.80
2019-03-16T13:04:44.371Z,12.70
2019-03-16T13:07:10.550Z,12.70
2019-03-16T13:09:36.608Z,12.70
2019-03-16T13:12:02.792Z,12.70
2019-03-16T13:14:28.890Z,12.80
2019-03-16T13:16:55.070Z,12.80
2019-03-16T13:19:21.156Z,12.90
2019-03-16T13:21:47.245Z,12.80
2019-03-16T13:24:13.323Z,12.90
2019-03-16T13:26:39.514Z,12.90
2019-03-16T13:29:05.580Z,12.90
2019-03-16T13:31:31.668Z,13.00
2019-03-16T13:33:57.769Z,13.00
2019-03-16T13:36:23.836Z,13.00
2019-03-16T13:38:49.927Z,13.00
2019-03-16T13:41:16.109Z,13.00
2019-03-16T13:43:42.184Z,13.10
2019-03-16T13:46:08.265Z,13.10
2019-03-16T13:48:34.440Z,13.10
2019-03-16T13:51:00.501Z,13.20
2019-03-16T13:53:26.668Z,13.20
2019-03-16T13:55:52.853Z,13.20
2019-03-16T13:58:18.925Z,13.10
2019-03-16T14:00:45.081Z,13.10
2019-03-16T14:03:11.604Z,13.10
2019-03-16T14:05:37.673Z,13.10
2019-03-16T14:08:03.745Z,13.20
2019-03-16T14:10:31.415Z,13.30
2019-03-16T14:12:57.520Z,13.30
2019-03-16T14:15:23.676Z,13.30
2019-03-16T14:17:49.748Z,13.30
2019-03-16T14:20:16.405Z,13.30
2019-03-16T14:22:42.515Z,13.30
2019-03-16T14:25:08.996Z,13.30
2019-03-16T14:27:35.184Z,13.40
2019-03-16T14:30:01.924Z,13.30
2019-03-16T14:32:28.017Z,13.30
2019-03-16T14:34:54.171Z,13.40
2019-03-16T14:37:20.549Z,13.60
2019-03-16T14:39:46.713Z,13.70
2019-03-16T14:42:12.809Z,13.90
2019-03-16T14:44:38.972Z,14.10
2019-03-16T14:47:05.358Z,14.40
2019-03-16T14:49:31.415Z,14.50
2019-03-16T14:51:57.512Z,14.50
2019-03-16T14:54:23.594Z,14.70
2019-03-16T14:56:49.750Z,14.80
2019-03-16T14:59:15.837Z,14.90
2019-03-16T15:01:41.905Z,15.00
2019-03-16T15:04:07.994Z,15.30
2019-03-16T15:06:53.932Z,15.30
2019-03-16T15:09:19.997Z,15.40
2019-03-16T15:11:46.085Z,15.20
2019-03-16T15:14:21.686Z,14.90
2019-03-16T15:16:40.123Z,14.70
2019-03-16T15:19:06.213Z,14.60
2019-03-16T15:21:32.295Z,14.60
2019-03-16T15:23:58.362Z,14.70
2019-03-16T15:26:24.461Z,14.70
2019-03-16T15:28:54.972Z,14.60
2019-03-16T15:31:18.522Z,14.60
2019-03-16T15:33:44.628Z,14.50
2019-03-16T15:36:10.692Z,14.40
2019-03-16T15:38:36.773Z,14.40
2019-03-16T15:41:03.851Z,14.30
2019-03-16T15:43:29.922Z,14.30
2019-03-16T15:45:56.739Z,14.40
2019-03-16T15:48:23.347Z,14.50
2019-03-16T15:50:49.440Z,14.70
2019-03-16T15:53:15.500Z,14.70
2019-03-16T15:55:41.576Z,14.60
2019-03-16T15:58:08.686Z,14.50
2019-03-16T16:00:34.929Z,14.30
2019-03-16T16:03:01.045Z,14.20
2019-03-16T16:05:27.236Z,14.10
2019-03-16T16:07:53.316Z,13.90
2019-03-16T16:10:19.509Z,13.90
2019-03-16T16:12:45.573Z,13.80
2019-03-16T16:15:12.650Z,13.80
2019-03-16T16:17:38.757Z,13.80
2019-03-16T16:20:08.222Z,13.70
2019-03-16T16:22:34.284Z,13.70
2019-03-16T16:25:00.505Z,13.70
2019-03-16T16:27:26.676Z,13.70
2019-03-16T16:29:52.772Z,13.70
2019-03-16T16:32:18.915Z,13.70
2019-03-16T16:34:45.038Z,13.70
2019-03-16T16:37:11.110Z,13.70
2019-03-16T16:39:37.177Z,13.70
2019-03-16T16:42:03.698Z,13.60
2019-03-16T16:44:29.856Z,13.60
2019-03-16T16:46:55.930Z,13.50
2019-03-16T16:49:22.030Z,13.50
2019-03-16T16:51:48.103Z,13.50
2019-03-16T16:54:14.184Z,13.50
2019-03-16T16:56:40.317Z,13.60
2019-03-16T16:59:06.392Z,13.60
2019-03-16T17:01:32.492Z,13.70
2019-03-16T17:03:58.582Z,13.70
2019-03-16T17:06:24.653Z,13.70
2019-03-16T17:08:50.861Z,13.70
2019-03-16T17:11:16.934Z,13.70
2019-03-16T17:13:43.021Z,13.80
2019-03-16T17:16:09.138Z,13.70
2019-03-16T17:18:35.228Z,13.70
2019-03-16T17:21:01.398Z,13.70
2019-03-16T17:23:27.459Z,13.70
2019-03-16T17:25:53.535Z,13.60
2019-03-16T17:28:19.609Z,13.70
2019-03-16T17:30:45.690Z,13.70
2019-03-16T17:33:12.205Z,13.60
2019-03-16T17:35:38.332Z,13.60
2019-03-16T17:38:04.476Z,13.60
2019-03-16T17:40:30.555Z,13.70
2019-03-16T17:42:56.631Z,13.70
2019-03-16T17:45:22.711Z,13.70
2019-03-16T17:47:48.805Z,13.60
2019-03-16T17:50:15.785Z,13.60
2019-03-16T17:52:42.040Z,13.60
2019-03-16T17:55:11.922Z,13.60
2019-03-16T17:57:37.996Z,13.60
2019-03-16T18:00:07.975Z,13.50
2019-03-16T18:02:34.081Z,13.50
2019-03-16T18:05:00.264Z,13.40
2019-03-16T18:07:26.548Z,13.40
2019-03-16T18:09:52.627Z,13.30
2019-03-16T18:12:18.739Z,13.30
2019-03-16T18:14:44.945Z,13.20
2019-03-16T18:17:11.015Z,13.10
2019-03-16T18:19:37.093Z,13.10
2019-03-16T18:22:03.268Z,13.10
2019-03-16T18:24:29.382Z,13.10
2019-03-16T18:26:55.570Z,13.10
2019-03-16T18:29:21.733Z,13.00
2019-03-16T18:31:47.913Z,12.90
2019-03-16T18:34:13.967Z,12.70
2019-03-16T18:36:40.063Z,12.60
2019-03-16T18:39:06.145Z,12.50
2019-03-16T18:41:32.239Z,12.50
2019-03-16T18:43:58.325Z,12.40
2019-03-16T18:46:24.404Z,12.30
2019-03-16T18:48:50.475Z,12.30
2019-03-16T18:51:16.553Z,12.20
2019-03-16T18:53:45.454Z,12.10
2019-03-16T18:56:10.587Z,12.00
2019-03-16T18:58:38.214Z,11.90
2019-03-16T19:01:04.460Z,11.80
2019-03-16T19:03:30.521Z,11.70
2019-03-16T19:05:56.613Z,11.60
2019-03-16T19:08:22.730Z,11.50
2019-03-16T19:10:48.804Z,11.40
2019-03-16T19:13:14.905Z,11.30
2019-03-16T19:15:41.273Z,11.20
2019-03-16T19:18:07.349Z,11.10
2019-03-16T19:20:33.468Z,11.00
2019-03-16T19:22:59.609Z,10.90
2019-03-16T19:25:25.769Z,10.80
2019-03-16T19:27:51.859Z,10.70
2019-03-16T19:30:18.085Z,10.60
2019-03-16T19:32:44.284Z,10.50
2019-03-16T19:35:10.349Z,10.40
2019-03-16T19:37:36.432Z,10.40
2019-03-16T19:40:05.833Z,10.30
2019-03-16T19:42:31.921Z,10.20
2019-03-16T19:44:57.983Z,10.10
2019-03-16T19:47:24.084Z,10.10
2019-03-16T19:49:50.235Z,10.00
2019-03-16T19:52:16.319Z,9.90
2019-03-16T19:54:42.420Z,9.80
2019-03-16T19:57:16.007Z,9.80
2019-03-16T19:59:36.490Z,9.70
2019-03-16T20:02:02.808Z,9.70
2019-03-16T20:04:35.816Z,9.60
2019-03-16T20:06:56.985Z,9.60
2019-03-16T20:09:24.494Z,9.50
2019-03-16T20:11:50.916Z,9.40
2019-03-16T20:14:17.037Z,9.40
2019-03-16T20:16:43.195Z,9.30
2019-03-16T20:19:09.285Z,9.20
2019-03-16T20:21:35.552Z,9.20
2019-03-16T20:24:01.616Z,9.10
2019-03-16T20:26:27.829Z,9.10
2019-03-16T20:28:53.989Z,9.00
2019-03-16T20:31:20.073Z,9.00
2019-03-16T20:33:46.190Z,9.00
2019-03-16T20:36:12.305Z,8.90
2019-03-16T20:38:38.464Z,8.90
2019-03-16T20:41:04.553Z,8.80
2019-03-16T20:43:30.755Z,8.80
2019-03-16T20:45:56.838Z,8.80
2019-03-16T20:48:22.956Z,8.80
2019-03-16T20:50:49.159Z,8.70
2019-03-16T20:53:15.326Z,8.70
2019-03-16T20:55:41.412Z,8.70
2019-03-16T20:58:07.489Z,8.60
2019-03-16T21:00:33.676Z,8.60
2019-03-16T21:02:59.786Z,8.50
2019-03-16T21:05:25.839Z,8.50
2019-03-16T21:07:52.021Z,8.50
2019-03-16T21:10:18.098Z,8.40
2019-03-16T21:12:44.181Z,8.40
2019-03-16T21:15:15.547Z,8.30
2019-03-16T21:17:41.616Z,8.30
2019-03-16T21:20:10.212Z,8.30
2019-03-16T21:22:38.994Z,8.20
2019-03-16T21:25:06.865Z,8.20
2019-03-16T21:27:32.946Z,8.10
2019-03-16T21:29:59.015Z,8.10
2019-03-16T21:32:25.093Z,8.00
2019-03-16T21:34:51.182Z,8.00
2019-03-16T21:37:17.402Z,8.00
2019-03-16T21:39:43.496Z,7.90
2019-03-16T21:42:09.579Z,7.90
2019-03-16T21:44:35.666Z,7.80
2019-03-16T21:47:01.904Z,7.80
2019-03-16T21:49:28.008Z,7.70
2019-03-16T21:51:54.150Z,7.70
2019-03-16T21:54:20.234Z,7.70
2019-03-16T21:56:46.320Z,7.70
2019-03-16T21:59:12.411Z,7.60
2019-03-16T22:01:38.503Z,7.60
2019-03-16T22:04:04.606Z,7.60
2019-03-16T22:06:30.685Z,7.60
2019-03-16T22:08:56.754Z,7.50
2019-03-16T22:11:22.824Z,7.50
2019-03-16T22:13:49.013Z,7.40
2019-03-16T22:16:15.113Z,7.40
2019-03-16T22:18:41.182Z,7.40
2019-03-16T22:21:07.278Z,7.40
2019-03-16T22:23:33.443Z,7.30
2019-03-16T22:25:59.521Z,7.30
2019-03-16T22:28:25.607Z,7.30
2019-03-16T22:30:51.672Z,7.20
2019-03-16T22:33:17.813Z,7.20
2019-03-16T22:35:43.945Z,7.20
2019-03-16T22:38:10.029Z,7.20
2019-03-16T22:40:36.139Z,7.10
2019-03-16T22:43:02.198Z,7.10
2019-03-16T22:45:28.320Z,7.10
2019-03-16T22:47:54.500Z,7.00
2019-03-16T22:50:20.664Z,7.00
2019-03-16T22:52:46.739Z,7.00
2019-03-16T22:55:15.721Z,7.00
2019-03-16T22:57:40.775Z,6.90
2019-03-16T23:00:16.300Z,6.90
2019-03-16T23:02:42.568Z,6.90
2019-03-16T23:05:09.798Z,6.90
2019-03-16T23:07:35.863Z,6.80
2019-03-16T23:10:05.330Z,6.80
2019-03-16T23:12:31.385Z,6.80
2019-03-16T23:14:57.470Z,6.70
2019-03-16T23:17:23.550Z,6.70
2019-03-16T23:19:49.618Z,6.70
2019-03-16T23:22:15.743Z,6.70
2019-03-16T23:24:41.806Z,6.60
2019-03-16T23:27:07.900Z,6.60
2019-03-16T23:29:34.013Z,6.60
2019-03-16T23:32:00.126Z,6.60
2019-03-16T23:34:26.224Z,6.50
2019-03-16T23:36:52.366Z,6.50
2019-03-16T23:39:18.672Z,6.50
2019-03-16T23:41:44.745Z,6.40
2019-03-16T23:44:10.795Z,6.40
2019-03-16T23:46:36.887Z,6.40
2019-03-16T23:49:03.093Z,6.40
2019-03-16T23:51:29.216Z,6.30
2019-03-16T23:53:55.364Z,6.30
2019-03-16T23:56:21.486Z,6.30
2019-03-16T23:58:47.579Z,6.30
